sensor_id;sensor_type;location;lat;lon;timestamp;P1;durP1;ratioP1;P2;durP2;ratioP2
76801;SDS011;66403;50.832;10.950;2023-06-10T00:04:42;9.43;;;7.18;;
76801;SDS011;66403;50.832;10.950;2023-06-10T00:09:43;8.75;;;5.95;;
76801;SDS011;66403;50.832;10.950;2023-06-10T00:14:43;7.47;;;6.10;;
76801;SDS011;66403;50.832;10.950;2023-06-10T00:19:44;9.57;;;6.72;;
76801;SDS011;66403;50.832;10.950;2023-06-10T00:24:46;9.52;;;8.00;;
76801;SDS011;66403;50.832;10.950;2023-06-10T00:29:47;9.57;;;7.13;;
76801;SDS011;66403;50.832;10.950;2023-06-10T00:34:48;9.77;;;6.95;;
76801;SDS011;66403;50.832;10.950;2023-06-10T00:39:48;8.57;;;6.70;;
76801;SDS011;66403;50.832;10.950;2023-06-10T00:44:48;11.82;;;8.38;;
76801;SDS011;66403;50.832;10.950;2023-06-10T00:49:49;10.65;;;7.38;;
76801;SDS011;66403;50.832;10.950;2023-06-10T00:54:50;9.32;;;7.65;;
76801;SDS011;66403;50.832;10.950;2023-06-10T00:59:51;7.65;;;6.22;;
76801;SDS011;66403;50.832;10.950;2023-06-10T01:04:52;11.82;;;7.20;;
76801;SDS011;66403;50.832;10.950;2023-06-10T01:09:58;9.23;;;7.00;;
76801;SDS011;66403;50.832;10.950;2023-06-10T01:15:11;8.38;;;7.40;;
76801;SDS011;66403;50.832;10.950;2023-06-10T01:20:12;8.57;;;6.32;;
76801;SDS011;66403;50.832;10.950;2023-06-10T01:25:13;8.05;;;6.72;;
76801;SDS011;66403;50.832;10.950;2023-06-10T01:30:15;9.07;;;7.18;;
76801;SDS011;66403;50.832;10.950;2023-06-10T01:35:18;9.00;;;7.70;;
76801;SDS011;66403;50.832;10.950;2023-06-10T01:40:21;8.50;;;6.63;;
76801;SDS011;66403;50.832;10.950;2023-06-10T01:45:24;6.95;;;6.20;;
76801;SDS011;66403;50.832;10.950;2023-06-10T01:50:24;9.35;;;7.25;;
76801;SDS011;66403;50.832;10.950;2023-06-10T01:55:25;8.90;;;7.07;;
76801;SDS011;66403;50.832;10.950;2023-06-10T02:00:25;9.23;;;7.18;;
76801;SDS011;66403;50.832;10.950;2023-06-10T02:05:25;9.20;;;6.97;;
76801;SDS011;66403;50.832;10.950;2023-06-10T02:10:26;10.60;;;6.80;;
76801;SDS011;66403;50.832;10.950;2023-06-10T02:15:26;7.82;;;6.30;;
76801;SDS011;66403;50.832;10.950;2023-06-10T02:20:27;9.73;;;6.43;;
76801;SDS011;66403;50.832;10.950;2023-06-10T02:25:27;7.60;;;5.93;;
76801;SDS011;66403;50.832;10.950;2023-06-10T02:30:28;7.57;;;6.10;;
76801;SDS011;66403;50.832;10.950;2023-06-10T02:35:28;10.05;;;6.50;;
76801;SDS011;66403;50.832;10.950;2023-06-10T02:40:30;7.53;;;6.20;;
76801;SDS011;66403;50.832;10.950;2023-06-10T02:45:30;9.52;;;6.20;;
76801;SDS011;66403;50.832;10.950;2023-06-10T02:50:32;7.50;;;5.70;;
76801;SDS011;66403;50.832;10.950;2023-06-10T02:55:44;8.98;;;7.07;;
76801;SDS011;66403;50.832;10.950;2023-06-10T03:00:48;8.07;;;6.20;;
76801;SDS011;66403;50.832;10.950;2023-06-10T03:05:49;8.55;;;6.82;;
76801;SDS011;66403;50.832;10.950;2023-06-10T03:10:52;7.57;;;6.35;;
76801;SDS011;66403;50.832;10.950;2023-06-10T03:15:53;8.55;;;6.90;;
76801;SDS011;66403;50.832;10.950;2023-06-10T03:20:56;8.38;;;6.32;;
76801;SDS011;66403;50.832;10.950;2023-06-10T03:25:59;11.02;;;7.13;;
76801;SDS011;66403;50.832;10.950;2023-06-10T03:31:01;10.15;;;6.50;;
76801;SDS011;66403;50.832;10.950;2023-06-10T03:36:05;7.50;;;5.78;;
76801;SDS011;66403;50.832;10.950;2023-06-10T03:41:06;11.40;;;7.13;;
76801;SDS011;66403;50.832;10.950;2023-06-10T03:46:07;10.93;;;6.70;;
76801;SDS011;66403;50.832;10.950;2023-06-10T03:51:07;9.02;;;6.15;;
76801;SDS011;66403;50.832;10.950;2023-06-10T03:56:08;8.80;;;5.93;;
76801;SDS011;66403;50.832;10.950;2023-06-10T04:01:08;8.65;;;6.13;;
76801;SDS011;66403;50.832;10.950;2023-06-10T04:06:10;8.57;;;6.80;;
76801;SDS011;66403;50.832;10.950;2023-06-10T04:11:11;7.30;;;5.72;;
76801;SDS011;66403;50.832;10.950;2023-06-10T04:16:11;9.48;;;6.03;;
76801;SDS011;66403;50.832;10.950;2023-06-10T04:21:12;8.63;;;6.40;;
76801;SDS011;66403;50.832;10.950;2023-06-10T04:26:12;7.03;;;5.60;;
76801;SDS011;66403;50.832;10.950;2023-06-10T04:31:13;7.10;;;5.22;;
76801;SDS011;66403;50.832;10.950;2023-06-10T04:36:14;7.00;;;5.43;;
76801;SDS011;66403;50.832;10.950;2023-06-10T04:41:15;6.95;;;5.28;;
76801;SDS011;66403;50.832;10.950;2023-06-10T04:46:16;8.73;;;5.53;;
76801;SDS011;66403;50.832;10.950;2023-06-10T04:51:18;6.65;;;4.55;;
76801;SDS011;66403;50.832;10.950;2023-06-10T04:56:18;8.40;;;7.25;;
76801;SDS011;66403;50.832;10.950;2023-06-10T05:01:20;7.75;;;6.47;;
76801;SDS011;66403;50.832;10.950;2023-06-10T05:06:20;6.93;;;5.78;;
76801;SDS011;66403;50.832;10.950;2023-06-10T05:11:21;9.27;;;6.45;;
76801;SDS011;66403;50.832;10.950;2023-06-10T05:16:21;7.38;;;6.00;;
76801;SDS011;66403;50.832;10.950;2023-06-10T05:21:22;6.57;;;5.90;;
76801;SDS011;66403;50.832;10.950;2023-06-10T05:26:22;6.68;;;5.43;;
76801;SDS011;66403;50.832;10.950;2023-06-10T05:31:23;8.30;;;7.13;;
76801;SDS011;66403;50.832;10.950;2023-06-10T05:36:23;6.55;;;5.75;;
76801;SDS011;66403;50.832;10.950;2023-06-10T05:41:27;8.60;;;5.90;;
76801;SDS011;66403;50.832;10.950;2023-06-10T05:46:28;9.43;;;7.15;;
76801;SDS011;66403;50.832;10.950;2023-06-10T05:51:28;6.90;;;5.63;;
76801;SDS011;66403;50.832;10.950;2023-06-10T05:56:29;6.15;;;4.90;;
76801;SDS011;66403;50.832;10.950;2023-06-10T06:01:29;6.37;;;5.00;;
76801;SDS011;66403;50.832;10.950;2023-06-10T06:06:30;7.32;;;4.90;;
76801;SDS011;66403;50.832;10.950;2023-06-10T06:11:30;5.97;;;5.25;;
76801;SDS011;66403;50.832;10.950;2023-06-10T06:16:31;8.03;;;4.83;;
76801;SDS011;66403;50.832;10.950;2023-06-10T06:21:32;6.28;;;4.63;;
76801;SDS011;66403;50.832;10.950;2023-06-10T06:26:33;4.30;;;3.72;;
76801;SDS011;66403;50.832;10.950;2023-06-10T06:31:33;8.03;;;4.93;;
76801;SDS011;66403;50.832;10.950;2023-06-10T06:36:33;8.03;;;4.70;;
76801;SDS011;66403;50.832;10.950;2023-06-10T06:41:34;6.15;;;5.35;;
76801;SDS011;66403;50.832;10.950;2023-06-10T06:46:34;10.83;;;5.37;;
76801;SDS011;66403;50.832;10.950;2023-06-10T06:51:35;6.10;;;4.47;;
76801;SDS011;66403;50.832;10.950;2023-06-10T06:56:35;7.93;;;4.50;;
76801;SDS011;66403;50.832;10.950;2023-06-10T07:01:35;7.10;;;4.63;;
76801;SDS011;66403;50.832;10.950;2023-06-10T07:06:36;6.83;;;4.83;;
76801;SDS011;66403;50.832;10.950;2023-06-10T07:11:38;6.68;;;5.13;;
76801;SDS011;66403;50.832;10.950;2023-06-10T07:16:38;11.20;;;5.97;;
76801;SDS011;66403;50.832;10.950;2023-06-10T07:21:38;9.47;;;6.53;;
76801;SDS011;66403;50.832;10.950;2023-06-10T07:26:39;11.17;;;10.03;;
76801;SDS011;66403;50.832;10.950;2023-06-10T07:31:40;8.53;;;5.07;;
76801;SDS011;66403;50.832;10.950;2023-06-10T07:36:41;6.60;;;5.43;;
76801;SDS011;66403;50.832;10.950;2023-06-10T07:41:41;7.93;;;4.90;;
76801;SDS011;66403;50.832;10.950;2023-06-10T07:46:42;5.23;;;4.47;;
76801;SDS011;66403;50.832;10.950;2023-06-10T07:51:42;5.73;;;4.80;;
76801;SDS011;66403;50.832;10.950;2023-06-10T07:56:42;5.43;;;3.97;;
76801;SDS011;66403;50.832;10.950;2023-06-10T08:01:43;7.20;;;5.93;;
76801;SDS011;66403;50.832;10.950;2023-06-10T08:06:43;6.13;;;4.93;;
76801;SDS011;66403;50.832;10.950;2023-06-10T08:11:44;7.70;;;5.60;;
76801;SDS011;66403;50.832;10.950;2023-06-10T08:16:46;8.55;;;7.40;;
76801;SDS011;66403;50.832;10.950;2023-06-10T08:21:46;6.80;;;5.13;;
76801;SDS011;66403;50.832;10.950;2023-06-10T08:26:47;5.87;;;4.37;;
76801;SDS011;66403;50.832;10.950;2023-06-10T08:31:47;10.90;;;6.13;;
76801;SDS011;66403;50.832;10.950;2023-06-10T08:36:48;6.50;;;5.23;;
76801;SDS011;66403;50.832;10.950;2023-06-10T08:47:17;7.45;;;6.28;;
76801;SDS011;66403;50.832;10.950;2023-06-10T08:52:19;7.97;;;4.63;;
76801;SDS011;66403;50.832;10.950;2023-06-10T08:57:20;6.03;;;5.32;;
76801;SDS011;66403;50.832;10.950;2023-06-10T09:02:21;6.95;;;4.35;;
76801;SDS011;66403;50.832;10.950;2023-06-10T09:07:22;5.82;;;4.32;;
76801;SDS011;66403;50.832;10.950;2023-06-10T09:12:23;7.03;;;5.20;;
76801;SDS011;66403;50.832;10.950;2023-06-10T09:17:23;6.97;;;4.80;;
76801;SDS011;66403;50.832;10.950;2023-06-10T09:22:24;5.50;;;5.00;;
76801;SDS011;66403;50.832;10.950;2023-06-10T09:32:27;6.15;;;5.55;;
76801;SDS011;66403;50.832;10.950;2023-06-10T09:37:28;5.45;;;4.80;;
76801;SDS011;66403;50.832;10.950;2023-06-10T09:42:28;5.65;;;4.55;;
76801;SDS011;66403;50.832;10.950;2023-06-10T09:47:35;5.53;;;4.97;;
76801;SDS011;66403;50.832;10.950;2023-06-10T09:52:38;6.47;;;5.40;;
76801;SDS011;66403;50.832;10.950;2023-06-10T09:57:39;7.43;;;4.75;;
76801;SDS011;66403;50.832;10.950;2023-06-10T10:02:45;6.35;;;5.72;;
76801;SDS011;66403;50.832;10.950;2023-06-10T10:07:47;7.38;;;4.07;;
76801;SDS011;66403;50.832;10.950;2023-06-10T10:12:50;7.35;;;4.95;;
76801;SDS011;66403;50.832;10.950;2023-06-10T10:17:58;5.05;;;4.50;;
76801;SDS011;66403;50.832;10.950;2023-06-10T10:23:18;4.28;;;3.60;;
76801;SDS011;66403;50.832;10.950;2023-06-10T10:28:24;5.25;;;4.78;;
76801;SDS011;66403;50.832;10.950;2023-06-10T10:33:40;7.57;;;4.72;;
76801;SDS011;66403;50.832;10.950;2023-06-10T10:38:45;6.13;;;4.53;;
76801;SDS011;66403;50.832;10.950;2023-06-10T10:43:52;5.07;;;4.53;;
76801;SDS011;66403;50.832;10.950;2023-06-10T10:48:53;5.20;;;4.65;;
76801;SDS011;66403;50.832;10.950;2023-06-10T10:54:10;5.43;;;4.93;;
76801;SDS011;66403;50.832;10.950;2023-06-10T10:59:17;5.43;;;4.93;;
76801;SDS011;66403;50.832;10.950;2023-06-10T11:04:20;5.82;;;5.32;;
76801;SDS011;66403;50.832;10.950;2023-06-10T11:09:27;5.05;;;4.50;;
76801;SDS011;66403;50.832;10.950;2023-06-10T11:14:32;5.90;;;5.47;;
76801;SDS011;66403;50.832;10.950;2023-06-10T11:19:36;6.40;;;5.38;;
76801;SDS011;66403;50.832;10.950;2023-06-10T11:24:47;5.53;;;5.03;;
76801;SDS011;66403;50.832;10.950;2023-06-10T11:34:56;6.30;;;5.80;;
76801;SDS011;66403;50.832;10.950;2023-06-10T11:39:57;6.20;;;5.60;;
76801;SDS011;66403;50.832;10.950;2023-06-10T11:44:59;6.50;;;4.55;;
76801;SDS011;66403;50.832;10.950;2023-06-10T11:50:02;8.60;;;5.70;;
76801;SDS011;66403;50.832;10.950;2023-06-10T11:55:03;7.50;;;5.70;;
76801;SDS011;66403;50.832;10.950;2023-06-10T12:00:05;5.40;;;4.97;;
76801;SDS011;66403;50.832;10.950;2023-06-10T12:05:12;7.60;;;6.10;;
76801;SDS011;66403;50.832;10.950;2023-06-10T12:10:15;7.45;;;6.75;;
76801;SDS011;66403;50.832;10.950;2023-06-10T12:15:23;6.47;;;5.88;;
76801;SDS011;66403;50.832;10.950;2023-06-10T12:20:26;5.90;;;5.30;;
76801;SDS011;66403;50.832;10.950;2023-06-10T12:25:28;7.93;;;7.13;;
76801;SDS011;66403;50.832;10.950;2023-06-10T12:30:32;7.47;;;5.80;;
76801;SDS011;66403;50.832;10.950;2023-06-10T12:35:32;7.85;;;7.10;;
76801;SDS011;66403;50.832;10.950;2023-06-10T12:40:33;8.43;;;7.22;;
76801;SDS011;66403;50.832;10.950;2023-06-10T12:45:37;7.03;;;6.43;;
76801;SDS011;66403;50.832;10.950;2023-06-10T12:50:39;7.00;;;6.40;;
76801;SDS011;66403;50.832;10.950;2023-06-10T12:55:41;6.22;;;5.63;;
76801;SDS011;66403;50.832;10.950;2023-06-10T13:00:42;12.00;;;6.60;;
76801;SDS011;66403;50.832;10.950;2023-06-10T13:05:42;7.07;;;5.75;;
76801;SDS011;66403;50.832;10.950;2023-06-10T13:10:43;7.90;;;6.67;;
76801;SDS011;66403;50.832;10.950;2023-06-10T13:15:43;8.13;;;7.17;;
76801;SDS011;66403;50.832;10.950;2023-06-10T13:20:44;7.43;;;6.65;;
76801;SDS011;66403;50.832;10.950;2023-06-10T13:25:44;6.60;;;6.00;;
76801;SDS011;66403;50.832;10.950;2023-06-10T13:30:45;6.97;;;6.27;;
76801;SDS011;66403;50.832;10.950;2023-06-10T13:35:45;7.80;;;6.07;;
76801;SDS011;66403;50.832;10.950;2023-06-10T13:40:45;6.80;;;6.10;;
76801;SDS011;66403;50.832;10.950;2023-06-10T13:45:46;6.03;;;5.53;;
76801;SDS011;66403;50.832;10.950;2023-06-10T13:50:47;6.38;;;5.28;;
76801;SDS011;66403;50.832;10.950;2023-06-10T13:55:47;6.95;;;6.00;;
76801;SDS011;66403;50.832;10.950;2023-06-10T14:00:48;8.00;;;7.20;;
76801;SDS011;66403;50.832;10.950;2023-06-10T14:05:48;5.35;;;4.85;;
76801;SDS011;66403;50.832;10.950;2023-06-10T14:10:50;4.80;;;4.40;;
76801;SDS011;66403;50.832;10.950;2023-06-10T14:15:51;3.67;;;3.38;;
76801;SDS011;66403;50.832;10.950;2023-06-10T14:20:52;5.78;;;3.85;;
76801;SDS011;66403;50.832;10.950;2023-06-10T14:25:53;4.55;;;4.20;;
76801;SDS011;66403;50.832;10.950;2023-06-10T14:30:53;4.17;;;3.53;;
76801;SDS011;66403;50.832;10.950;2023-06-10T14:35:54;4.00;;;3.60;;
76801;SDS011;66403;50.832;10.950;2023-06-10T14:40:54;5.15;;;4.30;;
76801;SDS011;66403;50.832;10.950;2023-06-10T14:45:55;4.50;;;4.03;;
76801;SDS011;66403;50.832;10.950;2023-06-10T14:50:56;4.88;;;4.03;;
76801;SDS011;66403;50.832;10.950;2023-06-10T14:55:56;3.77;;;3.30;;
76801;SDS011;66403;50.832;10.950;2023-06-10T15:00:56;3.50;;;3.20;;
76801;SDS011;66403;50.832;10.950;2023-06-10T15:05:57;4.57;;;3.63;;
76801;SDS011;66403;50.832;10.950;2023-06-10T15:10:57;5.23;;;3.50;;
76801;SDS011;66403;50.832;10.950;2023-06-10T15:15:58;3.53;;;3.20;;
76801;SDS011;66403;50.832;10.950;2023-06-10T15:20:58;4.38;;;3.78;;
76801;SDS011;66403;50.832;10.950;2023-06-10T15:25:59;3.70;;;3.20;;
76801;SDS011;66403;50.832;10.950;2023-06-10T15:30:59;4.53;;;3.03;;
76801;SDS011;66403;50.832;10.950;2023-06-10T15:36:00;4.47;;;3.27;;
76801;SDS011;66403;50.832;10.950;2023-06-10T15:41:00;5.53;;;3.05;;
76801;SDS011;66403;50.832;10.950;2023-06-10T15:46:01;5.07;;;3.70;;
76801;SDS011;66403;50.832;10.950;2023-06-10T15:51:01;3.42;;;3.13;;
76801;SDS011;66403;50.832;10.950;2023-06-10T15:56:03;4.40;;;3.92;;
76801;SDS011;66403;50.832;10.950;2023-06-10T16:01:03;4.07;;;3.70;;
76801;SDS011;66403;50.832;10.950;2023-06-10T16:06:04;8.10;;;4.67;;
76801;SDS011;66403;50.832;10.950;2023-06-10T16:11:04;4.43;;;4.03;;
76801;SDS011;66403;50.832;10.950;2023-06-10T16:16:05;6.18;;;4.95;;
76801;SDS011;66403;50.832;10.950;2023-06-10T16:21:05;4.75;;;3.97;;
76801;SDS011;66403;50.832;10.950;2023-06-10T16:26:06;6.90;;;6.17;;
76801;SDS011;66403;50.832;10.950;2023-06-10T16:31:06;5.17;;;4.47;;
76801;SDS011;66403;50.832;10.950;2023-06-10T16:36:07;5.37;;;4.63;;
76801;SDS011;66403;50.832;10.950;2023-06-10T16:41:07;5.43;;;4.33;;
76801;SDS011;66403;50.832;10.950;2023-06-10T16:46:07;5.57;;;4.30;;
76801;SDS011;66403;50.832;10.950;2023-06-10T16:51:08;3.93;;;3.53;;
76801;SDS011;66403;50.832;10.950;2023-06-10T16:56:08;7.23;;;5.87;;
76801;SDS011;66403;50.832;10.950;2023-06-10T17:01:09;5.55;;;4.80;;
76801;SDS011;66403;50.832;10.950;2023-06-10T17:06:09;4.28;;;3.88;;
76801;SDS011;66403;50.832;10.950;2023-06-10T17:11:10;5.32;;;3.83;;
76801;SDS011;66403;50.832;10.950;2023-06-10T17:16:11;5.85;;;3.95;;
76801;SDS011;66403;50.832;10.950;2023-06-10T17:21:11;4.93;;;4.40;;
76801;SDS011;66403;50.832;10.950;2023-06-10T17:26:12;8.75;;;4.50;;
76801;SDS011;66403;50.832;10.950;2023-06-10T17:31:12;4.70;;;4.10;;
76801;SDS011;66403;50.832;10.950;2023-06-10T17:36:13;9.27;;;4.03;;
76801;SDS011;66403;50.832;10.950;2023-06-10T17:41:13;5.90;;;4.75;;
76801;SDS011;66403;50.832;10.950;2023-06-10T17:46:14;5.45;;;4.95;;
76801;SDS011;66403;50.832;10.950;2023-06-10T17:51:14;4.90;;;4.43;;
76801;SDS011;66403;50.832;10.950;2023-06-10T17:56:16;5.75;;;4.70;;
76801;SDS011;66403;50.832;10.950;2023-06-10T18:01:16;5.23;;;4.73;;
76801;SDS011;66403;50.832;10.950;2023-06-10T18:06:16;4.70;;;4.30;;
76801;SDS011;66403;50.832;10.950;2023-06-10T18:11:17;5.60;;;4.67;;
76801;SDS011;66403;50.832;10.950;2023-06-10T18:16:17;4.97;;;4.57;;
76801;SDS011;66403;50.832;10.950;2023-06-10T18:21:18;6.70;;;5.85;;
76801;SDS011;66403;50.832;10.950;2023-06-10T18:26:18;6.57;;;5.07;;
76801;SDS011;66403;50.832;10.950;2023-06-10T18:31:19;5.27;;;4.63;;
76801;SDS011;66403;50.832;10.950;2023-06-10T18:36:19;6.60;;;4.97;;
76801;SDS011;66403;50.832;10.950;2023-06-10T18:41:19;7.03;;;5.23;;
76801;SDS011;66403;50.832;10.950;2023-06-10T18:46:20;8.17;;;4.70;;
76801;SDS011;66403;50.832;10.950;2023-06-10T18:51:20;5.80;;;4.83;;
76801;SDS011;66403;50.832;10.950;2023-06-10T18:56:22;5.78;;;5.15;;
76801;SDS011;66403;50.832;10.950;2023-06-10T19:01:22;6.23;;;4.70;;
76801;SDS011;66403;50.832;10.950;2023-06-10T19:06:23;11.20;;;8.00;;
76801;SDS011;66403;50.832;10.950;2023-06-10T19:11:24;5.38;;;4.88;;
76801;SDS011;66403;50.832;10.950;2023-06-10T19:16:25;6.88;;;5.28;;
76801;SDS011;66403;50.832;10.950;2023-06-10T19:21:25;5.40;;;4.90;;
76801;SDS011;66403;50.832;10.950;2023-06-10T19:26:27;6.93;;;4.90;;
76801;SDS011;66403;50.832;10.950;2023-06-10T19:31:27;5.88;;;4.88;;
76801;SDS011;66403;50.832;10.950;2023-06-10T19:36:28;5.85;;;5.25;;
76801;SDS011;66403;50.832;10.950;2023-06-10T19:41:28;7.63;;;5.72;;
76801;SDS011;66403;50.832;10.950;2023-06-10T19:46:28;7.33;;;5.87;;
76801;SDS011;66403;50.832;10.950;2023-06-10T19:51:29;7.22;;;5.80;;
76801;SDS011;66403;50.832;10.950;2023-06-10T19:56:29;6.75;;;6.13;;
76801;SDS011;66403;50.832;10.950;2023-06-10T20:01:30;7.80;;;6.77;;
76801;SDS011;66403;50.832;10.950;2023-06-10T20:06:30;7.33;;;6.10;;
76801;SDS011;66403;50.832;10.950;2023-06-10T20:11:31;8.07;;;6.80;;
76801;SDS011;66403;50.832;10.950;2023-06-10T20:16:31;7.33;;;6.03;;
76801;SDS011;66403;50.832;10.950;2023-06-10T20:21:31;7.97;;;6.80;;
76801;SDS011;66403;50.832;10.950;2023-06-10T20:26:32;7.57;;;6.37;;
76801;SDS011;66403;50.832;10.950;2023-06-10T20:31:32;5.87;;;5.27;;
76801;SDS011;66403;50.832;10.950;2023-06-10T20:36:33;7.50;;;6.27;;
76801;SDS011;66403;50.832;10.950;2023-06-10T20:41:33;9.73;;;8.70;;
76801;SDS011;66403;50.832;10.950;2023-06-10T20:46:34;10.65;;;7.93;;
76801;SDS011;66403;50.832;10.950;2023-06-10T20:51:35;10.70;;;7.95;;
76801;SDS011;66403;50.832;10.950;2023-06-10T20:56:35;12.52;;;9.10;;
76801;SDS011;66403;50.832;10.950;2023-06-10T21:01:36;14.10;;;10.00;;
76801;SDS011;66403;50.832;10.950;2023-06-10T21:06:36;13.73;;;10.87;;
76801;SDS011;66403;50.832;10.950;2023-06-10T21:11:37;16.40;;;12.60;;
76801;SDS011;66403;50.832;10.950;2023-06-10T21:16:37;15.67;;;10.67;;
76801;SDS011;66403;50.832;10.950;2023-06-10T21:21:38;16.08;;;11.85;;
76801;SDS011;66403;50.832;10.950;2023-06-10T21:26:39;12.05;;;9.63;;
76801;SDS011;66403;50.832;10.950;2023-06-10T21:31:39;15.38;;;9.77;;
76801;SDS011;66403;50.832;10.950;2023-06-10T21:36:40;11.85;;;8.88;;
76801;SDS011;66403;50.832;10.950;2023-06-10T21:41:40;11.57;;;9.73;;
76801;SDS011;66403;50.832;10.950;2023-06-10T21:46:41;12.07;;;10.77;;
76801;SDS011;66403;50.832;10.950;2023-06-10T21:51:41;9.13;;;8.23;;
76801;SDS011;66403;50.832;10.950;2023-06-10T21:56:43;16.17;;;13.35;;
76801;SDS011;66403;50.832;10.950;2023-06-10T22:01:46;18.52;;;13.23;;
76801;SDS011;66403;50.832;10.950;2023-06-10T22:06:47;13.40;;;10.85;;
76801;SDS011;66403;50.832;10.950;2023-06-10T22:11:47;11.20;;;8.82;;
76801;SDS011;66403;50.832;10.950;2023-06-10T22:16:48;11.48;;;9.02;;
76801;SDS011;66403;50.832;10.950;2023-06-10T22:21:50;9.30;;;7.28;;
76801;SDS011;66403;50.832;10.950;2023-06-10T22:26:50;9.10;;;8.20;;
76801;SDS011;66403;50.832;10.950;2023-06-10T22:31:51;9.45;;;8.10;;
76801;SDS011;66403;50.832;10.950;2023-06-10T22:36:51;9.35;;;8.38;;
76801;SDS011;66403;50.832;10.950;2023-06-10T22:41:52;10.07;;;7.40;;
76801;SDS011;66403;50.832;10.950;2023-06-10T22:46:52;9.20;;;8.20;;
76801;SDS011;66403;50.832;10.950;2023-06-10T22:51:52;9.83;;;7.70;;
76801;SDS011;66403;50.832;10.950;2023-06-10T22:56:53;9.50;;;7.23;;
76801;SDS011;66403;50.832;10.950;2023-06-10T23:01:54;10.10;;;7.88;;
76801;SDS011;66403;50.832;10.950;2023-06-10T23:06:58;10.50;;;9.40;;
76801;SDS011;66403;50.832;10.950;2023-06-10T23:11:58;8.35;;;7.55;;
76801;SDS011;66403;50.832;10.950;2023-06-10T23:16:59;9.13;;;7.30;;
76801;SDS011;66403;50.832;10.950;2023-06-10T23:22:00;9.65;;;8.27;;
76801;SDS011;66403;50.832;10.950;2023-06-10T23:27:01;8.82;;;7.18;;
76801;SDS011;66403;50.832;10.950;2023-06-10T23:32:02;11.70;;;8.38;;
76801;SDS011;66403;50.832;10.950;2023-06-10T23:37:02;9.15;;;7.93;;
76801;SDS011;66403;50.832;10.950;2023-06-10T23:42:05;9.30;;;7.55;;
76801;SDS011;66403;50.832;10.950;2023-06-10T23:47:06;9.25;;;8.07;;
76801;SDS011;66403;50.832;10.950;2023-06-10T23:52:06;9.88;;;8.45;;
76801;SDS011;66403;50.832;10.950;2023-06-10T23:57:07;9.30;;;8.35;;
